createdAt,value
2018-01-10T00:00:00.960Z,5.09
2018-01-10T00:02:29.305Z,5.15
2018-01-10T00:04:57.657Z,5.17
2018-01-10T00:07:26.822Z,5.22
2018-01-10T00:09:55.174Z,5.22
2018-01-10T00:12:23.552Z,5.23
2018-01-10T00:14:51.907Z,5.19
2018-01-10T00:17:21.049Z,5.22
2018-01-10T00:19:49.429Z,5.09
2018-01-10T00:22:17.775Z,4.95
2018-01-10T00:24:46.153Z,4.93
2018-01-10T00:27:14.500Z,4.88
2018-01-10T00:29:43.648Z,4.87
2018-01-10T00:32:12.015Z,4.89
2018-01-10T00:34:40.375Z,4.83
2018-01-10T00:37:08.746Z,4.73
2018-01-10T00:39:37.859Z,4.68
2018-01-10T00:42:06.238Z,4.58
2018-01-10T00:44:34.576Z,4.56
2018-01-10T00:47:02.943Z,4.53
2018-01-10T00:49:31.286Z,4.45
2018-01-10T00:51:59.666Z,4.34
2018-01-10T00:54:27.999Z,4.26
2018-01-10T00:56:57.154Z,4.20
2018-01-10T00:59:25.482Z,4.17
2018-01-10T01:01:53.850Z,4.13
2018-01-10T01:04:22.978Z,4.15
2018-01-10T01:06:51.329Z,4.16
2018-01-10T01:09:19.690Z,4.17
2018-01-10T01:11:48.888Z,4.25
2018-01-10T01:14:17.218Z,4.33
2018-01-10T01:16:45.598Z,4.31
2018-01-10T01:19:13.943Z,4.28
2018-01-10T01:21:42.318Z,4.24
2018-01-10T01:24:10.714Z,4.25
2018-01-10T01:26:39.066Z,4.22
2018-01-10T01:29:08.181Z,4.21
2018-01-10T01:31:36.546Z,4.08
2018-01-10T01:34:05.650Z,4.13
2018-01-10T01:36:33.990Z,4.09
2018-01-10T01:39:02.363Z,4.02
2018-01-10T01:41:30.708Z,3.94
2018-01-10T01:43:59.074Z,3.87
2018-01-10T01:46:27.402Z,3.82
2018-01-10T01:48:55.731Z,3.77
2018-01-10T01:51:24.112Z,3.81
2018-01-10T01:53:52.445Z,3.79
2018-01-10T01:56:21.602Z,3.78
2018-01-10T01:58:49.929Z,3.79
2018-01-10T02:01:19.063Z,3.77
2018-01-10T02:03:47.454Z,3.75
2018-01-10T02:06:15.795Z,3.77
2018-01-10T02:08:44.156Z,3.78
2018-01-10T02:11:13.277Z,3.69
2018-01-10T02:13:41.654Z,3.67
2018-01-10T02:16:10.058Z,3.61
2018-01-10T02:18:38.398Z,3.58
2018-01-10T02:21:06.790Z,3.57
2018-01-10T02:23:35.125Z,3.55
2018-01-10T02:26:03.467Z,3.53
2018-01-10T02:28:31.833Z,3.48
2018-01-10T02:31:00.162Z,3.46
2018-01-10T02:33:28.530Z,3.37
2018-01-10T02:35:56.858Z,3.33
2018-01-10T02:38:25.186Z,3.28
2018-01-10T02:40:53.545Z,3.22
2018-01-10T02:43:21.865Z,3.18
2018-01-10T02:45:51.005Z,3.13
2018-01-10T02:48:19.337Z,3.04
2018-01-10T02:50:47.722Z,3.07
2018-01-10T02:53:16.126Z,3.03
2018-01-10T02:55:44.470Z,3.01
2018-01-10T02:58:13.606Z,2.98
2018-01-10T03:00:41.970Z,2.94
2018-01-10T03:03:10.301Z,2.93
2018-01-10T03:05:38.674Z,2.89
2018-01-10T03:08:06.998Z,2.89
2018-01-10T03:10:35.331Z,2.91
2018-01-10T03:13:03.694Z,2.97
2018-01-10T03:15:32.025Z,2.84
2018-01-10T03:18:00.378Z,2.76
2018-01-10T03:20:29.477Z,2.72
2018-01-10T03:22:58.602Z,2.63
2018-01-10T03:25:26.946Z,2.77
2018-01-10T03:27:56.073Z,2.67
2018-01-10T03:30:24.438Z,2.58
2018-01-10T03:32:52.801Z,2.59
2018-01-10T03:35:21.917Z,2.58
2018-01-10T03:37:50.284Z,2.57
2018-01-10T03:40:19.372Z,2.55
2018-01-10T03:42:48.505Z,2.51
2018-01-10T03:45:16.888Z,2.48
2018-01-10T03:47:45.233Z,2.48
2018-01-10T03:50:14.373Z,2.51
2018-01-10T03:52:42.701Z,2.55
2018-01-10T03:55:11.814Z,2.52
2018-01-10T03:57:40.353Z,2.38
2018-01-10T04:00:08.669Z,2.32
2018-01-10T04:02:36.997Z,2.24
2018-01-10T04:05:05.417Z,2.23
2018-01-10T04:07:34.553Z,2.23
2018-01-10T04:10:02.946Z,2.22
2018-01-10T04:12:31.277Z,2.22
2018-01-10T04:14:59.693Z,2.32
2018-01-10T04:17:28.041Z,2.42
2018-01-10T04:19:56.406Z,2.35
2018-01-10T04:22:24.796Z,2.28
2018-01-10T04:24:53.221Z,2.25
2018-01-10T04:27:21.553Z,2.24
2018-01-10T04:29:49.945Z,2.22
2018-01-10T04:32:18.270Z,2.23
2018-01-10T04:34:46.615Z,2.28
2018-01-10T04:37:14.992Z,2.27
2018-01-10T04:39:43.316Z,2.20
2018-01-10T04:42:12.448Z,2.18
2018-01-10T04:44:40.773Z,2.12
2018-01-10T04:47:09.172Z,2.21
2018-01-10T04:49:38.308Z,2.21
2018-01-10T04:52:06.713Z,2.28
2018-01-10T04:54:35.045Z,2.26
2018-01-10T04:57:04.180Z,2.34
2018-01-10T04:59:33.376Z,2.34
2018-01-10T05:02:01.753Z,2.36
2018-01-10T05:04:30.085Z,2.41
2018-01-10T05:06:58.456Z,2.49
2018-01-10T05:09:27.596Z,2.52
2018-01-10T05:11:55.932Z,2.57
2018-01-10T05:14:24.272Z,2.53
2018-01-10T05:16:52.640Z,2.53
2018-01-10T05:19:20.992Z,2.51
2018-01-10T05:21:49.352Z,2.46
2018-01-10T05:24:17.716Z,2.47
2018-01-10T05:26:46.048Z,2.48
2018-01-10T05:29:14.414Z,2.43
2018-01-10T05:31:42.745Z,2.42
2018-01-10T05:34:11.136Z,2.43
2018-01-10T05:36:39.466Z,2.45
2018-01-10T05:39:07.805Z,2.44
2018-01-10T05:41:36.180Z,2.44
2018-01-10T05:44:04.516Z,2.43
2018-01-10T05:46:32.904Z,2.40
2018-01-10T05:49:02.003Z,2.38
2018-01-10T05:51:31.136Z,2.40
2018-01-10T05:53:59.464Z,2.44
2018-01-10T05:56:28.573Z,2.38
2018-01-10T05:58:57.697Z,2.37
2018-01-10T06:01:26.100Z,2.37
2018-01-10T06:03:54.479Z,2.36
2018-01-10T06:06:22.839Z,2.35
2018-01-10T06:08:51.171Z,2.36
2018-01-10T06:11:20.308Z,2.37
2018-01-10T06:13:48.686Z,2.37
2018-01-10T06:16:17.065Z,2.32
2018-01-10T06:18:45.376Z,2.27
2018-01-10T06:21:13.752Z,2.27
2018-01-10T06:23:42.091Z,2.25
2018-01-10T06:26:10.439Z,2.24
2018-01-10T06:28:39.555Z,2.23
2018-01-10T06:31:07.944Z,2.26
2018-01-10T06:33:36.308Z,2.26
2018-01-10T06:36:04.676Z,2.23
2018-01-10T06:38:33.064Z,2.20
2018-01-10T06:41:01.452Z,2.17
2018-01-10T06:43:29.824Z,2.17
2018-01-10T06:45:58.156Z,2.18
2018-01-10T06:48:26.552Z,2.21
2018-01-10T06:50:55.659Z,2.20
2018-01-10T06:53:24.795Z,2.31
2018-01-10T06:55:53.156Z,2.31
2018-01-10T06:58:21.508Z,2.36
2018-01-10T07:00:50.663Z,2.46
2018-01-10T07:03:19.003Z,2.61
2018-01-10T07:05:47.336Z,2.69
2018-01-10T07:08:15.707Z,2.75
2018-01-10T07:10:44.075Z,2.95
2018-01-10T07:13:12.451Z,2.94
2018-01-10T07:15:40.828Z,2.84
2018-01-10T07:18:09.219Z,2.82
2018-01-10T07:20:37.595Z,2.83
2018-01-10T07:23:05.935Z,2.87
2018-01-10T07:25:34.331Z,2.94
2018-01-10T07:28:02.675Z,2.99
2018-01-10T07:30:31.012Z,3.01
2018-01-10T07:32:59.392Z,3.02
2018-01-10T07:35:27.767Z,3.09
2018-01-10T07:37:56.141Z,3.16
2018-01-10T07:40:24.475Z,3.25
2018-01-10T07:42:52.807Z,3.31
2018-01-10T07:45:21.173Z,3.30
2018-01-10T07:47:49.515Z,3.33
2018-01-10T07:50:17.900Z,3.39
2018-01-10T07:52:46.259Z,3.48
2018-01-10T07:55:14.583Z,3.54
2018-01-10T07:57:42.941Z,3.60
2018-01-10T08:00:11.315Z,3.65
2018-01-10T08:02:39.654Z,3.72
2018-01-10T08:05:08.790Z,3.75
2018-01-10T08:07:37.127Z,3.83
2018-01-10T08:10:06.264Z,3.91
2018-01-10T08:12:34.606Z,3.99
2018-01-10T08:15:02.940Z,4.08
2018-01-10T08:17:31.303Z,4.16
2018-01-10T08:19:59.650Z,4.39
2018-01-10T08:22:28.015Z,4.60
2018-01-10T08:24:56.342Z,4.65
2018-01-10T08:27:24.710Z,4.74
2018-01-10T08:29:53.076Z,4.77
2018-01-10T08:32:21.416Z,4.84
2018-01-10T08:34:50.519Z,4.90
2018-01-10T08:37:18.904Z,4.99
2018-01-10T08:39:47.253Z,5.11
2018-01-10T08:42:15.622Z,5.23
2018-01-10T08:44:43.962Z,5.40
2018-01-10T08:47:12.337Z,5.52
2018-01-10T08:49:40.668Z,5.56
2018-01-10T08:52:09.814Z,5.66
2018-01-10T08:54:38.143Z,5.72
2018-01-10T08:57:07.235Z,5.71
2018-01-10T08:59:35.609Z,5.77
2018-01-10T09:02:03.946Z,5.83
2018-01-10T09:04:32.266Z,5.88
2018-01-10T09:07:00.644Z,6.04
2018-01-10T09:09:29.739Z,6.18
2018-01-10T09:11:58.874Z,6.21
2018-01-10T09:14:27.250Z,6.29
2018-01-10T09:16:55.585Z,6.35
2018-01-10T09:19:23.958Z,6.47
2018-01-10T09:21:52.291Z,6.63
2018-01-10T09:24:20.660Z,6.84
2018-01-10T09:26:48.980Z,6.86
2018-01-10T09:29:17.310Z,6.93
2018-01-10T09:31:45.666Z,6.91
2018-01-10T09:34:14.046Z,6.96
2018-01-10T09:36:42.398Z,6.99
2018-01-10T09:39:10.732Z,6.98
2018-01-10T09:41:39.092Z,7.07
2018-01-10T09:44:07.470Z,7.08
2018-01-10T09:46:35.796Z,7.20
2018-01-10T09:49:04.135Z,7.35
2018-01-10T09:51:32.506Z,7.40
2018-01-10T09:54:00.846Z,7.43
2018-01-10T09:56:29.222Z,7.60
2018-01-10T09:58:57.634Z,7.78
2018-01-10T10:01:26.015Z,7.86
2018-01-10T10:03:54.338Z,7.92
2018-01-10T10:06:22.662Z,7.97
2018-01-10T10:08:51.814Z,8.14
2018-01-10T10:11:20.164Z,8.28
2018-01-10T10:13:49.294Z,8.19
2018-01-10T10:16:17.629Z,8.25
2018-01-10T10:18:46.006Z,8.26
2018-01-10T10:21:14.341Z,8.24
2018-01-10T10:23:42.670Z,8.24
2018-01-10T10:26:11.048Z,8.27
2018-01-10T10:28:39.392Z,8.39
2018-01-10T10:31:08.539Z,8.51
2018-01-10T10:33:36.877Z,8.67
2018-01-10T10:36:05.250Z,8.70
2018-01-10T10:38:33.570Z,8.68
2018-01-10T10:41:01.949Z,8.75
2018-01-10T10:43:30.293Z,8.76
2018-01-10T10:45:58.622Z,8.63
2018-01-10T10:48:26.990Z,8.49
2018-01-10T10:50:55.376Z,8.40
2018-01-10T10:53:23.738Z,8.28
2018-01-10T10:55:52.130Z,8.45
2018-01-10T10:58:20.574Z,8.55
2018-01-10T11:00:48.906Z,8.63
2018-01-10T11:03:18.066Z,8.71
2018-01-10T11:05:46.400Z,8.69
2018-01-10T11:08:15.650Z,8.76
2018-01-10T11:10:43.995Z,8.80
2018-01-10T11:13:12.313Z,8.87
2018-01-10T11:15:40.725Z,8.94
2018-01-10T11:18:09.045Z,8.69
2018-01-10T11:20:37.429Z,8.87
2018-01-10T11:23:05.789Z,9.11
2018-01-10T11:25:34.245Z,9.29
2018-01-10T11:31:08.825Z,9.50
2018-01-10T11:33:37.165Z,9.60
2018-01-10T11:36:06.318Z,9.65
2018-01-10T11:38:34.649Z,9.69
2018-01-10T11:41:02.986Z,9.77
2018-01-10T11:43:31.353Z,9.78
2018-01-10T11:45:59.697Z,9.81
2018-01-10T11:48:28.069Z,10.01
2018-01-10T11:50:56.446Z,10.15
2018-01-10T11:53:24.785Z,10.21
2018-01-10T11:55:53.890Z,10.27
2018-01-10T11:58:23.037Z,10.50
2018-01-10T12:00:51.377Z,10.64
2018-01-10T12:03:19.737Z,10.62
2018-01-10T12:05:48.880Z,10.37
2018-01-10T12:08:17.261Z,10.18
2018-01-10T12:10:45.853Z,10.03
2018-01-10T12:13:14.232Z,9.79
2018-01-10T12:15:42.557Z,9.58
2018-01-10T12:18:11.671Z,9.44
2018-01-10T12:20:40.029Z,9.45
2018-01-10T12:23:09.181Z,9.49
2018-01-10T12:25:37.509Z,9.49
2018-01-10T12:28:06.601Z,9.30
2018-01-10T12:30:35.749Z,9.34
2018-01-10T12:33:04.725Z,9.46
2018-01-10T12:35:33.057Z,9.56
2018-01-10T12:38:02.182Z,9.69
2018-01-10T12:40:30.538Z,9.84
2018-01-10T12:42:58.898Z,9.97
2018-01-10T12:45:27.270Z,9.96
2018-01-10T12:47:55.661Z,9.86
2018-01-10T12:50:24.756Z,9.67
2018-01-10T12:52:53.897Z,9.40
2018-01-10T12:55:22.260Z,9.39
2018-01-10T12:57:50.594Z,9.25
2018-01-10T13:00:18.956Z,9.25
2018-01-10T13:02:47.312Z,9.27
2018-01-10T13:05:15.686Z,9.33
2018-01-10T13:07:44.029Z,9.36
2018-01-10T13:10:13.124Z,9.33
2018-01-10T13:12:42.336Z,9.35
2018-01-10T13:15:10.751Z,9.36
2018-01-10T13:17:39.120Z,9.27
2018-01-10T13:20:07.470Z,9.13
2018-01-10T13:22:35.849Z,9.01
2018-01-10T13:25:04.189Z,8.93
2018-01-10T13:27:32.526Z,8.84
2018-01-10T13:30:00.906Z,8.80
2018-01-10T13:32:29.242Z,8.74
2018-01-10T13:34:58.376Z,8.70
2018-01-10T13:37:26.747Z,8.69
2018-01-10T13:39:55.088Z,8.65
2018-01-10T13:42:24.240Z,8.61
2018-01-10T13:44:52.581Z,8.56
2018-01-10T13:47:21.382Z,8.49
2018-01-10T13:49:49.729Z,8.46
2018-01-10T13:52:18.828Z,8.47
2018-01-10T13:54:47.960Z,8.47
2018-01-10T13:57:16.360Z,8.45
2018-01-10T13:59:44.708Z,8.43
2018-01-10T14:02:13.064Z,8.42
2018-01-10T14:04:42.188Z,8.37
2018-01-10T14:07:10.509Z,8.28
2018-01-10T14:09:38.872Z,8.23
2018-01-10T14:12:07.218Z,8.16
2018-01-10T14:14:35.608Z,8.14
2018-01-10T14:17:03.944Z,8.09
2018-01-10T14:19:32.996Z,8.07
2018-01-10T14:22:01.348Z,8.05
2018-01-10T14:24:29.744Z,8.03
2018-01-10T14:26:58.073Z,7.98
2018-01-10T14:29:27.224Z,7.93
2018-01-10T14:31:55.604Z,7.87
2018-01-10T14:34:23.948Z,7.82
2018-01-10T14:36:52.276Z,7.80
2018-01-10T14:39:20.644Z,7.76
2018-01-10T14:41:48.988Z,7.74
2018-01-10T14:44:17.361Z,7.73
2018-01-10T14:46:45.692Z,7.67
2018-01-10T14:49:14.051Z,7.62
2018-01-10T14:51:42.379Z,7.55
2018-01-10T14:54:10.779Z,7.51
2018-01-10T14:56:39.872Z,7.49
2018-01-10T14:59:08.253Z,7.44
2018-01-10T15:01:36.592Z,7.37
2018-01-10T15:04:05.692Z,7.35
2018-01-10T15:06:34.843Z,7.27
2018-01-10T15:09:03.179Z,7.21
2018-01-10T15:11:31.503Z,7.15
2018-01-10T15:14:00.588Z,7.11
2018-01-10T15:16:28.941Z,7.06
2018-01-10T15:18:57.312Z,7.01
2018-01-10T15:21:25.652Z,6.97
2018-01-10T15:23:54.032Z,6.95
2018-01-10T15:26:23.133Z,6.91
2018-01-10T15:28:52.273Z,6.84
2018-01-10T15:31:20.619Z,6.79
2018-01-10T15:33:49.756Z,6.74
2018-01-10T15:36:18.101Z,6.69
2018-01-10T15:38:46.475Z,6.67
2018-01-10T15:41:14.823Z,6.62
2018-01-10T15:43:44.099Z,6.60
2018-01-10T15:46:12.529Z,6.60
2018-01-10T15:48:40.924Z,6.62
2018-01-10T15:51:09.980Z,6.60
2018-01-10T15:53:38.507Z,6.57
2018-01-10T15:56:07.120Z,6.54
2018-01-10T15:58:35.799Z,6.51
2018-01-10T16:01:04.196Z,6.46
2018-01-10T16:03:32.611Z,6.44
2018-01-10T16:06:00.984Z,6.38
2018-01-10T16:08:30.353Z,6.33
2018-01-10T16:10:59.499Z,6.26
2018-01-10T16:13:27.871Z,6.23
2018-01-10T16:15:57.492Z,6.18
2018-01-10T16:18:25.843Z,6.17
2018-01-10T16:20:56.949Z,6.15
2018-01-10T16:23:25.295Z,6.12
2018-01-10T16:25:53.653Z,6.09
2018-01-10T16:28:22.061Z,6.06
2018-01-10T16:30:50.404Z,6.06
2018-01-10T16:33:18.762Z,6.05
2018-01-10T16:35:47.912Z,6.03
2018-01-10T16:38:16.270Z,6.01
2018-01-10T16:40:45.444Z,6.02
2018-01-10T16:43:14.616Z,5.99
2018-01-10T16:45:43.334Z,6.01
2018-01-10T16:48:11.794Z,5.96
2018-01-10T16:50:40.911Z,5.96
2018-01-10T16:53:09.301Z,6.03
2018-01-10T16:55:37.682Z,6.05
2018-01-10T16:58:07.551Z,6.08
2018-01-10T17:00:35.891Z,6.07
2018-01-10T17:03:04.275Z,6.06
2018-01-10T17:05:32.619Z,6.08
2018-01-10T17:08:00.975Z,6.09
2018-01-10T17:10:30.121Z,6.13
2018-01-10T17:12:58.900Z,6.13
2018-01-10T17:15:27.251Z,6.10
2018-01-10T17:17:56.371Z,6.09
2018-01-10T17:20:24.755Z,6.05
2018-01-10T17:22:53.177Z,6.06
2018-01-10T17:25:21.594Z,6.05
2018-01-10T17:27:49.974Z,6.04
2018-01-10T17:30:18.298Z,6.03
2018-01-10T17:32:47.387Z,6.04
2018-01-10T17:35:16.286Z,5.99
2018-01-10T17:37:44.770Z,5.95
2018-01-10T17:40:13.574Z,5.92
2018-01-10T17:42:43.718Z,5.86
2018-01-10T17:45:13.110Z,5.82
2018-01-10T17:47:41.647Z,5.80
2018-01-10T17:50:11.154Z,5.76
2018-01-10T17:52:39.548Z,5.75
2018-01-10T17:55:10.011Z,5.72
2018-01-10T17:57:42.830Z,5.72
2018-01-10T18:00:13.180Z,5.73
2018-01-10T18:02:42.511Z,5.74
2018-01-10T18:05:11.738Z,5.73
2018-01-10T18:07:40.102Z,5.86
2018-01-10T19:25:10.527Z,5.35
2018-01-10T19:27:38.943Z,5.32
2018-01-10T19:30:07.476Z,5.30
2018-01-10T19:32:36.604Z,5.28
2018-01-10T19:35:05.733Z,5.27
2018-01-10T19:37:37.686Z,5.26
2018-01-10T19:40:06.064Z,5.24
2018-01-10T19:42:34.902Z,5.25
2018-01-10T19:45:03.374Z,5.23
2018-01-10T19:47:33.338Z,5.29
2018-01-10T19:50:01.794Z,5.31
2018-01-10T19:52:30.181Z,5.36
2018-01-10T19:54:59.345Z,5.37
2018-01-10T19:57:27.711Z,5.38
2018-01-10T19:59:56.250Z,5.38
2018-01-10T20:02:24.610Z,5.38
2018-01-10T20:04:53.026Z,5.40
2018-01-10T20:07:21.685Z,5.41
2018-01-10T20:09:50.043Z,5.43
2018-01-10T20:12:19.983Z,5.43
2018-01-10T20:14:48.385Z,5.44
2018-01-10T20:17:19.589Z,5.43
2018-01-10T20:19:47.945Z,5.42
2018-01-10T20:22:16.377Z,5.44
2018-01-10T20:24:44.985Z,5.44
2018-01-10T20:27:14.888Z,5.45
2018-01-10T20:29:44.734Z,5.45
2018-01-10T20:32:13.097Z,5.43
2018-01-10T20:34:42.224Z,5.43
2018-01-10T20:37:10.569Z,5.44
2018-01-10T20:39:39.125Z,5.44
2018-01-10T20:42:08.714Z,5.42
2018-01-10T20:44:37.113Z,5.41
2018-01-10T20:47:06.285Z,5.42
2018-01-10T20:49:34.669Z,5.38
2018-01-10T20:52:03.064Z,5.40
2018-01-10T20:54:32.182Z,5.33
2018-01-10T20:57:01.346Z,5.24
2018-01-10T20:59:29.710Z,5.21
2018-01-10T21:01:58.111Z,5.15
2018-01-10T21:04:26.485Z,5.10
2018-01-10T21:06:54.837Z,5.06
2018-01-10T21:09:23.252Z,4.98
2018-01-10T21:11:51.677Z,4.95
2018-01-10T21:14:20.038Z,4.98
2018-01-10T21:16:49.307Z,4.94
2018-01-10T21:19:17.689Z,4.87
2018-01-10T21:21:46.801Z,4.88
2018-01-10T21:24:15.953Z,4.95
2018-01-10T21:26:44.305Z,4.91
2018-01-10T21:29:12.686Z,4.86
2018-01-10T21:31:41.904Z,4.81
2018-01-10T21:34:10.957Z,4.77
2018-01-10T21:36:39.757Z,4.73
2018-01-10T21:39:08.098Z,4.68
2018-01-10T21:41:37.284Z,4.66
2018-01-10T21:44:05.644Z,4.39
2018-01-10T21:46:34.013Z,4.59
2018-01-10T21:49:02.397Z,4.59
2018-01-10T21:51:30.741Z,4.51
2018-01-10T21:53:59.147Z,4.54
2018-01-10T21:56:27.511Z,4.54
2018-01-10T21:58:55.868Z,4.53
2018-01-10T22:01:24.236Z,4.50
2018-01-10T22:03:53.383Z,4.47
2018-01-10T22:06:21.728Z,4.47
2018-01-10T22:08:50.130Z,4.49
2018-01-10T22:11:18.505Z,4.48
2018-01-10T22:13:46.881Z,4.53
2018-01-10T22:16:15.221Z,4.53
2018-01-10T22:18:43.587Z,4.45
2018-01-10T22:21:12.717Z,4.40
2018-01-10T22:23:41.135Z,4.37
2018-01-10T22:26:09.464Z,4.39
2018-01-10T22:28:37.817Z,4.31
2018-01-10T22:31:06.964Z,4.25
2018-01-10T22:33:35.696Z,4.23
2018-01-10T22:36:04.820Z,4.22
2018-01-10T22:38:33.289Z,4.20
2018-01-10T22:41:01.717Z,4.23
2018-01-10T22:43:30.092Z,4.24
2018-01-10T22:45:58.908Z,4.16
2018-01-10T22:48:27.288Z,4.14
2018-01-10T22:50:55.736Z,4.15
2018-01-10T22:53:24.152Z,4.14
2018-01-10T22:55:53.396Z,4.11
2018-01-10T22:58:21.760Z,4.11
2018-01-10T23:00:50.135Z,4.07
2018-01-10T23:03:18.532Z,4.05
2018-01-10T23:05:46.961Z,4.04
2018-01-10T23:08:16.141Z,4.05
2018-01-10T23:10:44.484Z,4.04
2018-01-10T23:13:12.855Z,4.10
2018-01-10T23:15:41.192Z,4.04
2018-01-10T23:18:09.572Z,4.04
2018-01-10T23:20:38.711Z,4.02
2018-01-10T23:23:07.040Z,3.99
2018-01-10T23:25:35.412Z,3.99
2018-01-10T23:28:03.769Z,3.99
2018-01-10T23:30:32.143Z,3.97
2018-01-10T23:33:00.508Z,4.00
2018-01-10T23:35:28.879Z,3.98
2018-01-10T23:37:57.244Z,4.01
2018-01-10T23:40:25.590Z,4.03
2018-01-10T23:42:54.727Z,4.03
2018-01-10T23:45:23.211Z,4.02
2018-01-10T23:47:51.555Z,4.03
2018-01-10T23:50:20.679Z,4.04
2018-01-10T23:52:49.047Z,4.06
2018-01-10T23:55:17.387Z,4.05
2018-01-10T23:57:45.764Z,4.00
